Manzanola, Colorado
Current Conditions -  °F | °C
As of 1:53 PM on Friday 31 Oct 2014 (Local Time) from KLHX Reporting Station
Clear Clear  
Wind Chill: 62°   Ceiling: Unl
Heat Index: 62°   Visibility: 10mi
Dew Point: 31°   Wind: 22mph
Humidity: 31%   Direction: 120°ESE
Pressure: 30.22"   Gusts: 29mph
Location:  38.11°N, 103.87°W
Report Text: KLHX 311953Z AUTO 12019G25KT 10SM CLR 17/M01 A3022 RMK AO2 PK WND 13027/1905 SLP212 T01671006
Loading
Personal Weather Stations






























Interactive Weather Map
Tropical Storm Tracking
New forecast layout! Learn more

10-Day Weather Forecast

Advertisements
Track Severe Weather on mobile